createdAt,value
2022-11-29T00:00:58.578Z,88.72
2022-11-29T00:04:01.655Z,88.78
2022-11-29T00:18:10.287Z,87.96
2022-11-29T00:21:12.827Z,88.32
2022-11-29T00:24:15.250Z,88.57
2022-11-29T00:27:18.194Z,89.37
2022-11-29T00:30:21.447Z,89.67
2022-11-29T00:33:23.822Z,89.99
2022-11-29T00:36:27.181Z,89.84
2022-11-29T00:39:29.655Z,89.55
2022-11-29T00:42:32.155Z,89.39
2022-11-29T00:45:34.782Z,89.26
2022-11-29T00:48:37.463Z,88.74
2022-11-29T00:51:39.963Z,88.52
2022-11-29T00:54:42.709Z,88.70
2022-11-29T00:57:45.819Z,89.07
2022-11-29T01:00:48.819Z,88.86
2022-11-29T01:03:51.453Z,88.89
2022-11-29T01:06:53.855Z,88.87
2022-11-29T01:09:56.311Z,88.65
2022-11-29T01:12:58.726Z,88.28
2022-11-29T01:16:01.202Z,88.28
2022-11-29T01:19:04.284Z,88.56
2022-11-29T01:22:06.765Z,88.37
2022-11-29T01:25:12.079Z,88.88
2022-11-29T01:28:14.448Z,88.83
2022-11-29T01:31:20.865Z,88.61
2022-11-29T01:34:23.249Z,88.37
2022-11-29T01:37:25.756Z,88.20
2022-11-29T01:40:28.182Z,87.27
2022-11-29T01:43:31.462Z,87.06
2022-11-29T01:46:36.924Z,87.15
2022-11-29T01:49:42.963Z,87.12
2022-11-29T01:52:46.110Z,86.44
2022-11-29T01:55:54.043Z,86.92
2022-11-29T01:58:56.717Z,86.75
2022-11-29T02:02:34.139Z,87.11
2022-11-29T02:05:40.846Z,87.27
2022-11-29T02:08:44.218Z,87.32
2022-11-29T02:12:05.674Z,87.97
2022-11-29T02:15:11.174Z,88.26
2022-11-29T02:18:17.850Z,88.78
2022-11-29T02:21:33.313Z,89.00
2022-11-29T02:24:41.805Z,88.87
2022-11-29T02:28:21.762Z,88.79
2022-11-29T02:31:58.916Z,88.07
2022-11-29T02:35:23.083Z,87.47
2022-11-29T02:38:35.271Z,87.33
2022-11-29T02:41:59.693Z,87.08
2022-11-29T02:45:47.112Z,87.32
2022-11-29T02:49:14.453Z,87.81
2022-11-29T02:52:29.713Z,87.62
2022-11-29T02:55:40.446Z,87.32
2022-11-29T02:58:54.431Z,87.34
2022-11-29T03:02:23.024Z,87.29
2022-11-29T03:05:40.918Z,87.12
2022-11-29T03:08:58.552Z,87.72
2022-11-29T03:12:16.643Z,87.73
2022-11-29T03:15:40.839Z,87.75
2022-11-29T03:19:05.716Z,87.87
2022-11-29T03:22:30.016Z,87.67
2022-11-29T03:25:51.099Z,87.71
2022-11-29T03:29:07.114Z,87.73
2022-11-29T03:32:48.560Z,87.93
2022-11-29T03:36:02.162Z,88.15
2022-11-29T03:39:09.624Z,88.57
2022-11-29T03:42:19.927Z,88.82
2022-11-29T03:45:32.866Z,88.59
2022-11-29T03:48:47.483Z,88.88
2022-11-29T03:52:12.843Z,89.17
2022-11-29T03:55:45.269Z,89.01
2022-11-29T03:59:03.788Z,89.55
2022-11-29T04:02:12.420Z,89.54
2022-11-29T04:05:53.156Z,89.41
2022-11-29T04:09:26.864Z,89.62
2022-11-29T04:12:57.706Z,90.15
2022-11-29T04:16:31.846Z,89.39
2022-11-29T04:19:40.282Z,89.22
2022-11-29T04:22:48.696Z,89.16
2022-11-29T04:26:16.012Z,89.83
2022-11-29T04:29:34.025Z,89.63
2022-11-29T04:32:50.802Z,90.04
2022-11-29T04:36:19.424Z,90.66
2022-11-29T04:39:40.735Z,90.70
2022-11-29T04:42:54.782Z,90.86
2022-11-29T04:46:22.446Z,90.88
2022-11-29T04:49:43.574Z,90.88
2022-11-29T04:53:01.244Z,91.04
2022-11-29T04:56:22.526Z,90.81
2022-11-29T04:59:32.967Z,91.58
2022-11-29T05:02:50.787Z,91.38
2022-11-29T05:06:05.428Z,91.58
2022-11-29T05:09:18.218Z,91.98
2022-11-29T05:12:29.550Z,91.28
2022-11-29T05:16:12.650Z,90.58
2022-11-29T05:19:38.114Z,91.25
2022-11-29T05:23:04.128Z,91.09
2022-11-29T05:26:20.231Z,91.68
2022-11-29T05:29:39.093Z,92.05
2022-11-29T05:33:06.222Z,92.01
2022-11-29T05:36:21.339Z,92.62
2022-11-29T05:39:30.148Z,92.27
2022-11-29T05:42:32.558Z,91.83
2022-11-29T05:45:45.414Z,91.59
2022-11-29T05:49:01.668Z,91.61
2022-11-29T05:52:25.109Z,90.75
2022-11-29T05:55:51.761Z,90.92
2022-11-29T05:59:00.875Z,91.28
2022-11-29T06:02:16.072Z,91.44
2022-11-29T06:05:46.935Z,91.82
2022-11-29T06:09:00.364Z,91.43
2022-11-29T06:12:09.985Z,92.02
2022-11-29T06:15:34.230Z,91.80
2022-11-29T06:18:53.571Z,91.68
2022-11-29T06:22:09.252Z,91.35
2022-11-29T06:25:33.243Z,91.79
2022-11-29T06:28:41.353Z,90.92
2022-11-29T06:31:48.374Z,91.26
2022-11-29T06:35:03.410Z,92.72
2022-11-29T06:38:23.933Z,91.87
2022-11-29T06:41:26.787Z,92.03
2022-11-29T06:44:29.497Z,91.97
2022-11-29T06:47:42.563Z,91.90
2022-11-29T06:50:54.069Z,91.90
2022-11-29T06:53:59.451Z,92.03
2022-11-29T06:57:07.991Z,92.19
2022-11-29T07:00:21.723Z,91.41
2022-11-29T07:03:57.333Z,91.63
2022-11-29T07:07:00.305Z,91.79
2022-11-29T07:10:07.407Z,91.79
2022-11-29T07:13:13.825Z,91.71
2022-11-29T07:16:25.929Z,91.26
2022-11-29T07:19:34.778Z,91.26
2022-11-29T07:23:11.755Z,91.29
2022-11-29T07:26:33.452Z,91.16
2022-11-29T07:29:53.887Z,91.43
2022-11-29T07:33:15.061Z,91.08
2022-11-29T07:36:26.432Z,90.79
2022-11-29T07:39:43.072Z,90.92
2022-11-29T07:43:10.302Z,90.57
2022-11-29T07:46:12.832Z,89.94
2022-11-29T07:49:15.410Z,89.69
2022-11-29T07:52:18.203Z,89.52
2022-11-29T07:55:22.646Z,89.26
2022-11-29T07:58:25.265Z,88.88
2022-11-29T08:01:28.161Z,87.65
2022-11-29T08:04:30.778Z,87.01
2022-11-29T08:07:41.247Z,86.82
2022-11-29T08:10:49.973Z,87.31
2022-11-29T08:14:00.744Z,87.18
2022-11-29T08:17:03.200Z,86.34
2022-11-29T08:20:07.513Z,85.81
2022-11-29T08:23:12.848Z,85.67
2022-11-29T08:26:25.539Z,86.05
2022-11-29T08:29:32.439Z,86.18
2022-11-29T08:32:34.925Z,85.69
2022-11-29T08:35:37.420Z,85.43
2022-11-29T08:38:40.015Z,85.59
2022-11-29T08:41:42.846Z,86.01
2022-11-29T08:44:45.525Z,85.64
2022-11-29T08:47:48.161Z,86.07
2022-11-29T08:50:52.733Z,85.49
2022-11-29T08:53:57.133Z,84.55
2022-11-29T08:57:38.032Z,84.29
2022-11-29T09:00:23.282Z,83.53
2022-11-29T09:03:44.638Z,83.03
2022-11-29T09:06:49.659Z,82.20
2022-11-29T09:09:52.242Z,80.89
2022-11-29T09:12:55.101Z,80.75
2022-11-29T09:15:58.143Z,79.03
2022-11-29T09:19:00.958Z,78.99
2022-11-29T09:22:03.715Z,78.24
2022-11-29T09:25:06.806Z,78.72
2022-11-29T09:28:09.447Z,79.68
2022-11-29T09:31:14.393Z,79.22
2022-11-29T09:34:18.611Z,79.44
2022-11-29T09:37:21.142Z,78.81
2022-11-29T09:40:31.013Z,79.77
2022-11-29T09:44:11.869Z,78.36
2022-11-29T09:47:45.465Z,78.46
2022-11-29T09:50:54.406Z,77.40
2022-11-29T09:53:56.970Z,77.42
2022-11-29T09:56:59.863Z,76.29
2022-11-29T10:00:07.009Z,75.90
2022-11-29T10:03:17.059Z,76.47
2022-11-29T10:06:30.948Z,75.93
2022-11-29T10:09:44.351Z,75.65
2022-11-29T10:12:52.515Z,75.76
2022-11-29T10:16:00.619Z,75.09
2022-11-29T10:19:21.927Z,75.25
2022-11-29T10:22:45.705Z,74.60
2022-11-29T10:25:54.756Z,74.62
2022-11-29T10:28:58.051Z,74.19
2022-11-29T10:32:10.002Z,75.13
2022-11-29T10:35:16.395Z,74.34
2022-11-29T10:38:34.235Z,74.50
2022-11-29T10:41:36.759Z,74.74
2022-11-29T10:44:39.185Z,74.95
2022-11-29T10:47:41.690Z,74.00
2022-11-29T10:50:48.553Z,74.22
2022-11-29T10:53:52.712Z,73.91
2022-11-29T10:56:57.856Z,74.57
2022-11-29T11:00:04.613Z,73.08
2022-11-29T11:03:17.234Z,72.28
2022-11-29T11:06:27.633Z,72.94
2022-11-29T11:09:39.168Z,72.61
2022-11-29T11:13:01.017Z,71.89
2022-11-29T11:16:20.604Z,72.74
2022-11-29T11:19:30.800Z,70.61
2022-11-29T11:22:34.756Z,70.68
2022-11-29T11:25:40.631Z,69.57
2022-11-29T11:29:00.244Z,70.86
2022-11-29T11:32:04.765Z,70.49
2022-11-29T11:35:22.819Z,69.91
2022-11-29T11:38:25.336Z,69.62
2022-11-29T11:41:52.189Z,69.71
2022-11-29T11:44:54.965Z,68.14
2022-11-29T11:48:05.001Z,67.93
2022-11-29T11:51:21.353Z,66.91
2022-11-29T11:54:24.200Z,66.11
2022-11-29T11:57:28.242Z,67.44
2022-11-29T12:04:35.708Z,67.35
2022-11-29T12:11:16.041Z,67.31
2022-11-29T12:14:46.357Z,65.10
2022-11-29T12:17:52.006Z,65.65
2022-11-29T12:21:00.751Z,66.22
2022-11-29T12:24:20.589Z,66.34
2022-11-29T12:27:23.052Z,65.27
2022-11-29T12:30:25.979Z,65.72
2022-11-29T12:33:51.323Z,65.25
2022-11-29T12:37:16.292Z,66.40
2022-11-29T12:40:32.534Z,65.21
2022-11-29T12:43:53.427Z,65.36
2022-11-29T12:47:34.786Z,65.68
2022-11-29T12:50:52.167Z,65.83
2022-11-29T12:54:02.886Z,65.58
2022-11-29T12:57:23.769Z,66.05
2022-11-29T13:00:30.864Z,65.74
2022-11-29T13:03:44.795Z,65.66
2022-11-29T13:07:06.219Z,66.02
2022-11-29T13:10:18.375Z,66.78
2022-11-29T13:13:41.375Z,66.52
2022-11-29T13:16:59.618Z,66.57
2022-11-29T13:20:25.668Z,66.49
2022-11-29T13:23:46.190Z,66.76
2022-11-29T13:26:56.133Z,67.66
2022-11-29T13:30:00.931Z,67.57
2022-11-29T13:33:13.583Z,67.79
2022-11-29T13:36:21.814Z,67.10
2022-11-29T13:39:42.567Z,67.83
2022-11-29T13:42:55.624Z,68.43
2022-11-29T13:46:30.485Z,68.67
2022-11-29T13:49:58.129Z,68.74
2022-11-29T13:53:11.893Z,69.42
2022-11-29T13:56:42.812Z,69.92
2022-11-29T13:59:49.480Z,70.15
2022-11-29T14:02:52.164Z,70.12
2022-11-29T14:06:08.767Z,70.24
2022-11-29T14:09:32.404Z,70.36
2022-11-29T14:12:43.296Z,70.46
2022-11-29T14:15:56.564Z,70.00
2022-11-29T14:19:08.459Z,70.28
2022-11-29T14:22:22.203Z,70.13
2022-11-29T14:28:57.923Z,70.80
2022-11-29T14:32:00.745Z,70.83
2022-11-29T14:35:12.427Z,71.20
2022-11-29T14:38:46.404Z,71.92
2022-11-29T14:42:18.554Z,72.81
2022-11-29T14:45:45.255Z,73.87
2022-11-29T14:48:57.680Z,73.97
2022-11-29T14:52:15.875Z,74.55
2022-11-29T14:55:18.263Z,74.83
2022-11-29T14:58:21.773Z,75.49
2022-11-29T15:01:24.716Z,75.48
2022-11-29T15:04:33.097Z,76.07
2022-11-29T15:07:35.804Z,76.45
2022-11-29T15:10:47.421Z,76.92
2022-11-29T15:14:04.607Z,77.77
2022-11-29T15:17:20.321Z,78.49
2022-11-29T15:20:45.692Z,78.83
2022-11-29T15:23:59.802Z,79.29
2022-11-29T15:27:03.892Z,79.48
2022-11-29T15:30:28.678Z,79.86
2022-11-29T15:33:33.056Z,79.90
2022-11-29T15:36:43.699Z,80.05
2022-11-29T15:39:46.268Z,80.42
2022-11-29T15:42:54.750Z,81.26
2022-11-29T15:45:58.544Z,80.82
2022-11-29T15:49:18.864Z,81.04
2022-11-29T15:52:34.913Z,81.49
2022-11-29T15:55:37.907Z,82.58
2022-11-29T15:58:41.241Z,84.34
2022-11-29T16:01:48.132Z,84.07
2022-11-29T16:04:54.964Z,83.70
2022-11-29T16:08:19.677Z,83.60
2022-11-29T16:11:28.049Z,83.90
2022-11-29T16:14:31.268Z,83.39
2022-11-29T16:17:35.016Z,83.44
2022-11-29T16:20:37.972Z,83.52
2022-11-29T16:23:42.886Z,83.76
2022-11-29T16:26:47.234Z,83.79
2022-11-29T16:29:51.841Z,84.01
2022-11-29T16:32:58.132Z,83.21
2022-11-29T16:36:11.451Z,82.88
2022-11-29T16:39:23.428Z,82.76
2022-11-29T16:42:28.908Z,83.02
2022-11-29T16:45:33.783Z,82.75
2022-11-29T16:48:40.450Z,83.24
2022-11-29T16:51:48.145Z,83.00
2022-11-29T16:54:51.447Z,83.59
2022-11-29T16:57:54.189Z,83.84
2022-11-29T17:00:56.698Z,83.87
2022-11-29T17:04:00.605Z,83.78
2022-11-29T17:07:07.496Z,83.32
2022-11-29T17:10:16.547Z,84.11
2022-11-29T17:13:19.222Z,84.17
2022-11-29T17:16:24.610Z,84.60
2022-11-29T17:19:28.856Z,84.15
2022-11-29T17:22:31.383Z,83.86
2022-11-29T17:25:33.765Z,83.87
2022-11-29T17:28:36.219Z,86.34
2022-11-29T17:31:39.270Z,86.45
2022-11-29T17:34:41.756Z,85.78
2022-11-29T17:37:44.403Z,85.74
2022-11-29T17:40:46.977Z,85.15
2022-11-29T17:43:51.136Z,86.71
2022-11-29T17:46:56.921Z,85.16
2022-11-29T17:49:59.774Z,84.57
2022-11-29T17:53:02.289Z,84.47
2022-11-29T17:56:07.523Z,83.14
2022-11-29T17:59:10.077Z,83.06
2022-11-29T18:02:13.453Z,82.33
2022-11-29T18:05:16.405Z,84.09
2022-11-29T18:08:19.193Z,84.82
2022-11-29T18:11:26.318Z,84.40
2022-11-29T18:14:29.181Z,84.36
2022-11-29T18:17:32.175Z,86.08
2022-11-29T18:20:34.967Z,86.14
2022-11-29T18:23:39.867Z,85.67
2022-11-29T18:26:42.916Z,84.28
2022-11-29T18:29:45.748Z,85.39
2022-11-29T18:32:48.446Z,85.86
2022-11-29T18:35:51.476Z,85.74
2022-11-29T18:38:57.316Z,85.12
2022-11-29T18:42:00.131Z,86.26
2022-11-29T18:45:02.562Z,87.02
2022-11-29T18:48:06.765Z,87.70
2022-11-29T18:51:14.210Z,87.48
2022-11-29T18:54:18.484Z,86.38
2022-11-29T18:57:20.880Z,86.45
2022-11-29T19:00:26.176Z,87.10
2022-11-29T19:03:29.067Z,87.34
2022-11-29T19:06:39.366Z,86.54
2022-11-29T19:09:42.968Z,86.55
2022-11-29T19:12:45.881Z,87.41
2022-11-29T19:15:53.592Z,88.49
2022-11-29T19:18:58.128Z,87.53
2022-11-29T19:22:00.773Z,86.67
2022-11-29T19:25:03.505Z,87.19
2022-11-29T19:28:12.553Z,87.94
2022-11-29T19:31:19.259Z,87.41
2022-11-29T19:34:22.025Z,86.36
2022-11-29T19:37:24.816Z,87.22
2022-11-29T19:40:27.862Z,87.59
2022-11-29T19:43:31.712Z,88.50
2022-11-29T19:46:47.059Z,86.94
2022-11-29T19:49:50.111Z,87.01
2022-11-29T19:52:52.672Z,87.52
2022-11-29T19:55:55.388Z,88.95
2022-11-29T19:59:01.619Z,88.91
2022-11-29T20:02:04.533Z,87.93
2022-11-29T20:05:07.786Z,88.67
2022-11-29T20:08:10.200Z,86.92
2022-11-29T20:11:18.694Z,86.34
2022-11-29T20:14:21.388Z,86.21
2022-11-29T20:17:24.059Z,85.50
2022-11-29T20:20:26.714Z,85.02
2022-11-29T20:23:29.482Z,84.47
2022-11-29T20:26:35.062Z,85.06
2022-11-29T20:29:37.563Z,85.38
2022-11-29T20:32:40.642Z,84.47
2022-11-29T20:35:43.475Z,86.57
2022-11-29T20:38:54.954Z,86.83
2022-11-29T20:42:19.048Z,85.89
2022-11-29T20:45:23.723Z,87.29
2022-11-29T20:48:28.783Z,87.12
2022-11-29T20:51:49.791Z,86.83
2022-11-29T20:54:52.558Z,85.87
2022-11-29T20:57:55.207Z,87.63
2022-11-29T21:00:58.650Z,87.29
2022-11-29T21:04:01.373Z,85.92
2022-11-29T21:07:04.255Z,86.31
2022-11-29T21:10:07.605Z,86.09
2022-11-29T21:13:12.237Z,85.75
2022-11-29T21:16:15.315Z,87.94
2022-11-29T21:19:24.927Z,87.40
2022-11-29T21:22:37.986Z,87.44
2022-11-29T21:26:06.502Z,89.14
2022-11-29T21:29:14.289Z,89.55
2022-11-29T21:32:25.653Z,88.31
2022-11-29T21:35:28.037Z,89.76
2022-11-29T21:38:30.736Z,90.48
2022-11-29T21:41:33.645Z,90.25
2022-11-29T21:44:36.037Z,90.68
2022-11-29T21:47:38.487Z,90.22
2022-11-29T21:50:40.924Z,90.75
2022-11-29T21:53:43.344Z,89.46
2022-11-29T21:56:45.770Z,90.50
2022-11-29T21:59:48.228Z,90.92
2022-11-29T22:02:50.605Z,91.02
2022-11-29T22:05:53.010Z,90.14
2022-11-29T22:08:55.972Z,91.08
2022-11-29T22:11:59.015Z,91.05
2022-11-29T22:15:01.468Z,89.29
2022-11-29T22:18:04.103Z,91.08
2022-11-29T22:21:07.475Z,91.08
2022-11-29T22:24:11.129Z,89.93
2022-11-29T22:27:13.556Z,90.50
2022-11-29T22:30:16.393Z,90.14
2022-11-29T22:33:18.794Z,89.35
2022-11-29T22:36:21.445Z,88.34
2022-11-29T22:39:24.231Z,89.19
2022-11-29T22:42:26.674Z,88.54
2022-11-29T22:45:29.100Z,88.54
2022-11-29T22:48:38.244Z,89.65
2022-11-29T22:51:40.999Z,88.73
2022-11-29T22:54:43.541Z,90.04
2022-11-29T22:57:46.088Z,90.29
2022-11-29T23:00:48.457Z,89.72
2022-11-29T23:03:56.137Z,89.37
2022-11-29T23:06:58.766Z,88.27
2022-11-29T23:10:01.134Z,88.48
2022-11-29T23:13:03.685Z,88.62
2022-11-29T23:16:08.772Z,87.20
2022-11-29T23:19:11.695Z,88.46
2022-11-29T23:22:14.123Z,87.87
2022-11-29T23:25:16.558Z,87.64
2022-11-29T23:28:19.036Z,89.41
2022-11-29T23:31:23.166Z,88.88
2022-11-29T23:34:25.753Z,88.02
2022-11-29T23:37:28.132Z,87.43
2022-11-29T23:40:30.584Z,88.36
2022-11-29T23:43:35.760Z,88.65
2022-11-29T23:46:38.298Z,86.72
2022-11-29T23:49:40.971Z,87.94
2022-11-29T23:52:43.606Z,88.57
2022-11-29T23:55:55.833Z,87.33
2022-11-29T23:58:58.293Z,88.51
